sensor_id;sensor_type;location;lat;lon;timestamp;P1;durP1;ratioP1;P2;durP2;ratioP2
19095;SDS011;9680;52.520;13.332;2022-12-17T00:02:10;71.20;;;19.60;;
19095;SDS011;9680;52.520;13.332;2022-12-17T00:04:54;71.97;;;21.13;;
19095;SDS011;9680;52.520;13.332;2022-12-17T00:07:38;61.90;;;19.37;;
19095;SDS011;9680;52.520;13.332;2022-12-17T00:10:22;61.80;;;19.53;;
19095;SDS011;9680;52.520;13.332;2022-12-17T00:13:15;67.50;;;19.93;;
19095;SDS011;9680;52.520;13.332;2022-12-17T00:16:04;63.33;;;19.80;;
19095;SDS011;9680;52.520;13.332;2022-12-17T00:18:48;74.10;;;19.17;;
19095;SDS011;9680;52.520;13.332;2022-12-17T00:21:33;73.77;;;21.13;;
19095;SDS011;9680;52.520;13.332;2022-12-17T00:24:16;73.13;;;21.70;;
19095;SDS011;9680;52.520;13.332;2022-12-17T00:27:01;78.37;;;19.40;;
19095;SDS011;9680;52.520;13.332;2022-12-17T00:29:45;80.87;;;22.20;;
19095;SDS011;9680;52.520;13.332;2022-12-17T00:32:29;73.17;;;22.13;;
19095;SDS011;9680;52.520;13.332;2022-12-17T00:35:13;87.53;;;21.43;;
19095;SDS011;9680;52.520;13.332;2022-12-17T00:37:56;78.53;;;21.10;;
19095;SDS011;9680;52.520;13.332;2022-12-17T00:40:40;67.03;;;19.20;;
19095;SDS011;9680;52.520;13.332;2022-12-17T00:43:24;65.20;;;17.73;;
19095;SDS011;9680;52.520;13.332;2022-12-17T00:46:09;69.50;;;18.70;;
19095;SDS011;9680;52.520;13.332;2022-12-17T00:48:53;71.53;;;18.83;;
19095;SDS011;9680;52.520;13.332;2022-12-17T00:51:37;74.70;;;17.37;;
19095;SDS011;9680;52.520;13.332;2022-12-17T00:54:21;62.90;;;18.13;;
19095;SDS011;9680;52.520;13.332;2022-12-17T00:57:05;67.67;;;17.37;;
19095;SDS011;9680;52.520;13.332;2022-12-17T00:59:51;62.60;;;16.90;;
19095;SDS011;9680;52.520;13.332;2022-12-17T01:02:35;60.53;;;15.67;;
19095;SDS011;9680;52.520;13.332;2022-12-17T01:05:19;70.17;;;16.90;;
19095;SDS011;9680;52.520;13.332;2022-12-17T01:08:10;67.33;;;17.33;;
19095;SDS011;9680;52.520;13.332;2022-12-17T01:11:03;72.23;;;18.10;;
19095;SDS011;9680;52.520;13.332;2022-12-17T01:13:50;58.10;;;15.33;;
19095;SDS011;9680;52.520;13.332;2022-12-17T01:16:34;73.80;;;17.27;;
19095;SDS011;9680;52.520;13.332;2022-12-17T01:19:19;64.63;;;15.50;;
19095;SDS011;9680;52.520;13.332;2022-12-17T01:22:03;74.30;;;16.93;;
19095;SDS011;9680;52.520;13.332;2022-12-17T01:24:48;56.30;;;15.00;;
19095;SDS011;9680;52.520;13.332;2022-12-17T01:27:32;59.63;;;16.03;;
19095;SDS011;9680;52.520;13.332;2022-12-17T01:30:15;55.37;;;14.23;;
19095;SDS011;9680;52.520;13.332;2022-12-17T01:33:03;47.60;;;14.47;;
19095;SDS011;9680;52.520;13.332;2022-12-17T01:35:50;54.47;;;15.23;;
19095;SDS011;9680;52.520;13.332;2022-12-17T01:38:37;66.63;;;16.53;;
19095;SDS011;9680;52.520;13.332;2022-12-17T01:41:22;57.80;;;15.10;;
19095;SDS011;9680;52.520;13.332;2022-12-17T01:47:33;57.30;;;15.50;;
19095;SDS011;9680;52.520;13.332;2022-12-17T01:50:30;53.07;;;13.43;;
19095;SDS011;9680;52.520;13.332;2022-12-17T01:53:17;55.30;;;14.17;;
19095;SDS011;9680;52.520;13.332;2022-12-17T01:56:05;59.33;;;15.10;;
19095;SDS011;9680;52.520;13.332;2022-12-17T01:58:50;66.70;;;14.63;;
19095;SDS011;9680;52.520;13.332;2022-12-17T02:01:35;56.67;;;14.77;;
19095;SDS011;9680;52.520;13.332;2022-12-17T02:04:19;58.50;;;14.23;;
19095;SDS011;9680;52.520;13.332;2022-12-17T02:10:28;52.67;;;12.73;;
19095;SDS011;9680;52.520;13.332;2022-12-17T02:13:30;52.07;;;13.73;;
19095;SDS011;9680;52.520;13.332;2022-12-17T02:16:19;49.73;;;13.67;;
19095;SDS011;9680;52.520;13.332;2022-12-17T02:22:24;50.90;;;14.03;;
19095;SDS011;9680;52.520;13.332;2022-12-17T02:25:33;58.67;;;14.67;;
19095;SDS011;9680;52.520;13.332;2022-12-17T02:28:25;43.07;;;12.97;;
19095;SDS011;9680;52.520;13.332;2022-12-17T02:31:10;65.73;;;15.97;;
19095;SDS011;9680;52.520;13.332;2022-12-17T02:33:56;50.90;;;13.00;;
19095;SDS011;9680;52.520;13.332;2022-12-17T02:36:43;50.57;;;13.63;;
19095;SDS011;9680;52.520;13.332;2022-12-17T02:39:27;47.87;;;13.97;;
19095;SDS011;9680;52.520;13.332;2022-12-17T02:42:11;55.87;;;14.03;;
19095;SDS011;9680;52.520;13.332;2022-12-17T02:44:57;48.60;;;13.40;;
19095;SDS011;9680;52.520;13.332;2022-12-17T02:47:41;54.13;;;12.83;;
19095;SDS011;9680;52.520;13.332;2022-12-17T02:50:28;48.50;;;13.57;;
19095;SDS011;9680;52.520;13.332;2022-12-17T02:53:13;50.97;;;13.13;;
19095;SDS011;9680;52.520;13.332;2022-12-17T02:56:05;56.43;;;14.37;;
19095;SDS011;9680;52.520;13.332;2022-12-17T02:58:49;42.33;;;12.60;;
19095;SDS011;9680;52.520;13.332;2022-12-17T03:01:33;46.83;;;12.60;;
19095;SDS011;9680;52.520;13.332;2022-12-17T03:04:17;43.83;;;12.13;;
19095;SDS011;9680;52.520;13.332;2022-12-17T03:07:01;44.80;;;11.80;;
19095;SDS011;9680;52.520;13.332;2022-12-17T03:09:46;47.13;;;12.77;;
19095;SDS011;9680;52.520;13.332;2022-12-17T03:12:31;43.67;;;13.47;;
19095;SDS011;9680;52.520;13.332;2022-12-17T03:15:35;36.73;;;11.47;;
19095;SDS011;9680;52.520;13.332;2022-12-17T03:18:18;47.43;;;11.50;;
19095;SDS011;9680;52.520;13.332;2022-12-17T03:21:02;39.50;;;12.50;;
19095;SDS011;9680;52.520;13.332;2022-12-17T03:23:46;39.37;;;12.53;;
19095;SDS011;9680;52.520;13.332;2022-12-17T03:26:31;36.00;;;11.13;;
19095;SDS011;9680;52.520;13.332;2022-12-17T03:29:15;30.57;;;9.53;;
19095;SDS011;9680;52.520;13.332;2022-12-17T03:31:59;34.27;;;9.80;;
19095;SDS011;9680;52.520;13.332;2022-12-17T03:34:42;35.63;;;9.97;;
19095;SDS011;9680;52.520;13.332;2022-12-17T03:37:26;65.13;;;10.33;;
19095;SDS011;9680;52.520;13.332;2022-12-17T03:40:10;36.10;;;11.00;;
19095;SDS011;9680;52.520;13.332;2022-12-17T03:42:54;40.57;;;10.83;;
19095;SDS011;9680;52.520;13.332;2022-12-17T03:45:37;36.67;;;10.50;;
19095;SDS011;9680;52.520;13.332;2022-12-17T03:48:22;36.43;;;10.57;;
19095;SDS011;9680;52.520;13.332;2022-12-17T03:51:06;43.87;;;12.07;;
19095;SDS011;9680;52.520;13.332;2022-12-17T03:53:50;44.63;;;11.43;;
19095;SDS011;9680;52.520;13.332;2022-12-17T03:56:34;41.57;;;10.10;;
19095;SDS011;9680;52.520;13.332;2022-12-17T03:59:18;46.43;;;11.80;;
19095;SDS011;9680;52.520;13.332;2022-12-17T04:02:01;64.07;;;12.37;;
19095;SDS011;9680;52.520;13.332;2022-12-17T04:04:45;51.23;;;13.13;;
19095;SDS011;9680;52.520;13.332;2022-12-17T04:07:29;45.03;;;10.80;;
19095;SDS011;9680;52.520;13.332;2022-12-17T04:10:13;61.80;;;12.53;;
19095;SDS011;9680;52.520;13.332;2022-12-17T04:12:57;52.37;;;12.53;;
19095;SDS011;9680;52.520;13.332;2022-12-17T04:15:42;48.83;;;13.33;;
19095;SDS011;9680;52.520;13.332;2022-12-17T04:18:26;49.63;;;13.10;;
19095;SDS011;9680;52.520;13.332;2022-12-17T04:21:10;50.73;;;12.23;;
19095;SDS011;9680;52.520;13.332;2022-12-17T04:23:54;49.03;;;12.30;;
19095;SDS011;9680;52.520;13.332;2022-12-17T04:26:38;49.30;;;13.47;;
19095;SDS011;9680;52.520;13.332;2022-12-17T04:29:23;57.53;;;12.43;;
19095;SDS011;9680;52.520;13.332;2022-12-17T04:32:07;46.70;;;11.57;;
19095;SDS011;9680;52.520;13.332;2022-12-17T04:34:51;64.37;;;12.10;;
19095;SDS011;9680;52.520;13.332;2022-12-17T04:37:35;53.80;;;12.40;;
19095;SDS011;9680;52.520;13.332;2022-12-17T04:40:20;42.30;;;10.10;;
19095;SDS011;9680;52.520;13.332;2022-12-17T04:43:08;40.77;;;11.53;;
19095;SDS011;9680;52.520;13.332;2022-12-17T04:45:54;60.23;;;13.13;;
19095;SDS011;9680;52.520;13.332;2022-12-17T04:48:38;50.07;;;12.37;;
19095;SDS011;9680;52.520;13.332;2022-12-17T04:51:22;49.57;;;12.27;;
19095;SDS011;9680;52.520;13.332;2022-12-17T04:54:06;52.80;;;12.30;;
19095;SDS011;9680;52.520;13.332;2022-12-17T04:56:50;49.37;;;12.27;;
19095;SDS011;9680;52.520;13.332;2022-12-17T04:59:34;45.87;;;12.00;;
19095;SDS011;9680;52.520;13.332;2022-12-17T05:02:18;43.17;;;11.13;;
19095;SDS011;9680;52.520;13.332;2022-12-17T05:05:02;44.87;;;12.17;;
19095;SDS011;9680;52.520;13.332;2022-12-17T05:07:46;52.87;;;12.37;;
19095;SDS011;9680;52.520;13.332;2022-12-17T05:10:30;44.70;;;12.00;;
19095;SDS011;9680;52.520;13.332;2022-12-17T05:13:14;44.13;;;12.90;;
19095;SDS011;9680;52.520;13.332;2022-12-17T05:15:58;41.77;;;11.97;;
19095;SDS011;9680;52.520;13.332;2022-12-17T05:18:41;35.10;;;9.17;;
19095;SDS011;9680;52.520;13.332;2022-12-17T05:21:25;34.27;;;9.10;;
19095;SDS011;9680;52.520;13.332;2022-12-17T05:24:09;44.27;;;10.83;;
19095;SDS011;9680;52.520;13.332;2022-12-17T05:26:53;36.73;;;10.47;;
19095;SDS011;9680;52.520;13.332;2022-12-17T05:29:37;34.83;;;9.23;;
19095;SDS011;9680;52.520;13.332;2022-12-17T05:32:21;32.93;;;9.33;;
19095;SDS011;9680;52.520;13.332;2022-12-17T05:35:05;33.53;;;10.07;;
19095;SDS011;9680;52.520;13.332;2022-12-17T05:37:49;42.13;;;10.43;;
19095;SDS011;9680;52.520;13.332;2022-12-17T05:40:33;37.93;;;10.97;;
19095;SDS011;9680;52.520;13.332;2022-12-17T05:43:17;38.33;;;11.67;;
19095;SDS011;9680;52.520;13.332;2022-12-17T05:46:01;40.60;;;11.33;;
19095;SDS011;9680;52.520;13.332;2022-12-17T05:48:45;38.70;;;10.77;;
19095;SDS011;9680;52.520;13.332;2022-12-17T05:51:29;41.23;;;11.47;;
19095;SDS011;9680;52.520;13.332;2022-12-17T05:54:13;40.67;;;10.57;;
19095;SDS011;9680;52.520;13.332;2022-12-17T05:56:57;33.17;;;10.03;;
19095;SDS011;9680;52.520;13.332;2022-12-17T05:59:41;29.37;;;9.73;;
19095;SDS011;9680;52.520;13.332;2022-12-17T06:02:26;36.70;;;9.53;;
19095;SDS011;9680;52.520;13.332;2022-12-17T06:05:10;37.37;;;10.47;;
19095;SDS011;9680;52.520;13.332;2022-12-17T06:08:04;37.87;;;11.13;;
19095;SDS011;9680;52.520;13.332;2022-12-17T06:10:49;42.13;;;10.70;;
19095;SDS011;9680;52.520;13.332;2022-12-17T06:13:33;40.20;;;10.73;;
19095;SDS011;9680;52.520;13.332;2022-12-17T06:16:17;37.73;;;11.47;;
19095;SDS011;9680;52.520;13.332;2022-12-17T06:19:01;36.13;;;11.17;;
19095;SDS011;9680;52.520;13.332;2022-12-17T06:21:45;40.57;;;10.67;;
19095;SDS011;9680;52.520;13.332;2022-12-17T06:24:29;38.83;;;10.13;;
19095;SDS011;9680;52.520;13.332;2022-12-17T06:27:13;37.70;;;10.93;;
19095;SDS011;9680;52.520;13.332;2022-12-17T06:29:57;42.33;;;12.57;;
19095;SDS011;9680;52.520;13.332;2022-12-17T06:32:48;40.77;;;10.83;;
19095;SDS011;9680;52.520;13.332;2022-12-17T06:35:32;49.37;;;12.00;;
19095;SDS011;9680;52.520;13.332;2022-12-17T06:38:16;41.10;;;11.73;;
19095;SDS011;9680;52.520;13.332;2022-12-17T06:41:00;46.57;;;12.80;;
19095;SDS011;9680;52.520;13.332;2022-12-17T06:43:45;47.53;;;13.80;;
19095;SDS011;9680;52.520;13.332;2022-12-17T06:46:29;50.60;;;11.73;;
19095;SDS011;9680;52.520;13.332;2022-12-17T06:49:15;42.03;;;12.43;;
19095;SDS011;9680;52.520;13.332;2022-12-17T06:51:59;40.33;;;12.60;;
19095;SDS011;9680;52.520;13.332;2022-12-17T06:54:43;47.30;;;12.90;;
19095;SDS011;9680;52.520;13.332;2022-12-17T06:57:26;43.67;;;12.10;;
19095;SDS011;9680;52.520;13.332;2022-12-17T07:00:10;54.10;;;12.83;;
19095;SDS011;9680;52.520;13.332;2022-12-17T07:02:55;44.10;;;12.93;;
19095;SDS011;9680;52.520;13.332;2022-12-17T07:05:39;46.00;;;12.23;;
19095;SDS011;9680;52.520;13.332;2022-12-17T07:08:23;45.30;;;12.73;;
19095;SDS011;9680;52.520;13.332;2022-12-17T07:11:07;46.63;;;11.93;;
19095;SDS011;9680;52.520;13.332;2022-12-17T07:13:51;36.10;;;10.53;;
19095;SDS011;9680;52.520;13.332;2022-12-17T07:16:35;46.87;;;14.40;;
19095;SDS011;9680;52.520;13.332;2022-12-17T07:19:18;45.83;;;12.23;;
19095;SDS011;9680;52.520;13.332;2022-12-17T07:22:02;44.87;;;12.80;;
19095;SDS011;9680;52.520;13.332;2022-12-17T07:24:57;46.20;;;12.10;;
19095;SDS011;9680;52.520;13.332;2022-12-17T07:27:41;44.00;;;12.73;;
19095;SDS011;9680;52.520;13.332;2022-12-17T07:30:25;44.37;;;12.83;;
19095;SDS011;9680;52.520;13.332;2022-12-17T07:33:09;43.17;;;12.40;;
19095;SDS011;9680;52.520;13.332;2022-12-17T07:35:53;41.40;;;12.53;;
19095;SDS011;9680;52.520;13.332;2022-12-17T07:38:38;45.03;;;14.37;;
19095;SDS011;9680;52.520;13.332;2022-12-17T07:41:22;45.87;;;12.23;;
19095;SDS011;9680;52.520;13.332;2022-12-17T07:44:23;41.37;;;10.73;;
19095;SDS011;9680;52.520;13.332;2022-12-17T07:47:07;35.30;;;11.50;;
19095;SDS011;9680;52.520;13.332;2022-12-17T07:49:52;41.70;;;12.03;;
19095;SDS011;9680;52.520;13.332;2022-12-17T07:52:35;39.40;;;12.17;;
19095;SDS011;9680;52.520;13.332;2022-12-17T07:55:19;40.87;;;12.60;;
19095;SDS011;9680;52.520;13.332;2022-12-17T07:58:04;38.53;;;11.83;;
19095;SDS011;9680;52.520;13.332;2022-12-17T08:00:51;35.47;;;11.17;;
19095;SDS011;9680;52.520;13.332;2022-12-17T08:03:35;46.83;;;12.20;;
19095;SDS011;9680;52.520;13.332;2022-12-17T08:06:19;42.17;;;11.87;;
19095;SDS011;9680;52.520;13.332;2022-12-17T08:09:03;42.17;;;11.03;;
19095;SDS011;9680;52.520;13.332;2022-12-17T08:11:48;40.43;;;12.17;;
19095;SDS011;9680;52.520;13.332;2022-12-17T08:14:32;41.27;;;13.20;;
19095;SDS011;9680;52.520;13.332;2022-12-17T08:17:16;40.70;;;13.03;;
19095;SDS011;9680;52.520;13.332;2022-12-17T08:20:00;47.73;;;12.73;;
19095;SDS011;9680;52.520;13.332;2022-12-17T08:22:44;48.13;;;13.70;;
19095;SDS011;9680;52.520;13.332;2022-12-17T08:25:28;37.90;;;11.57;;
19095;SDS011;9680;52.520;13.332;2022-12-17T08:28:12;45.93;;;13.47;;
19095;SDS011;9680;52.520;13.332;2022-12-17T08:30:56;43.70;;;13.00;;
19095;SDS011;9680;52.520;13.332;2022-12-17T08:33:40;48.57;;;13.07;;
19095;SDS011;9680;52.520;13.332;2022-12-17T08:36:24;47.37;;;12.43;;
19095;SDS011;9680;52.520;13.332;2022-12-17T08:39:08;40.73;;;13.47;;
19095;SDS011;9680;52.520;13.332;2022-12-17T08:41:53;42.83;;;12.87;;
19095;SDS011;9680;52.520;13.332;2022-12-17T08:44:37;42.03;;;13.60;;
19095;SDS011;9680;52.520;13.332;2022-12-17T08:47:21;42.67;;;13.13;;
19095;SDS011;9680;52.520;13.332;2022-12-17T08:50:05;49.73;;;14.50;;
19095;SDS011;9680;52.520;13.332;2022-12-17T08:52:59;47.17;;;15.27;;
19095;SDS011;9680;52.520;13.332;2022-12-17T08:55:55;49.50;;;15.10;;
19095;SDS011;9680;52.520;13.332;2022-12-17T08:58:38;43.80;;;14.03;;
19095;SDS011;9680;52.520;13.332;2022-12-17T09:01:23;51.23;;;14.43;;
19095;SDS011;9680;52.520;13.332;2022-12-17T09:04:07;46.80;;;14.00;;
19095;SDS011;9680;52.520;13.332;2022-12-17T09:06:51;47.70;;;15.27;;
19095;SDS011;9680;52.520;13.332;2022-12-17T09:09:35;57.50;;;14.80;;
19095;SDS011;9680;52.520;13.332;2022-12-17T09:12:19;50.43;;;15.43;;
19095;SDS011;9680;52.520;13.332;2022-12-17T09:15:03;49.67;;;14.73;;
19095;SDS011;9680;52.520;13.332;2022-12-17T09:18:07;57.23;;;15.67;;
19095;SDS011;9680;52.520;13.332;2022-12-17T09:20:53;58.23;;;16.40;;
19095;SDS011;9680;52.520;13.332;2022-12-17T09:23:38;53.50;;;15.07;;
19095;SDS011;9680;52.520;13.332;2022-12-17T09:26:22;52.07;;;15.40;;
19095;SDS011;9680;52.520;13.332;2022-12-17T09:29:06;53.37;;;15.50;;
19095;SDS011;9680;52.520;13.332;2022-12-17T09:31:51;53.03;;;15.00;;
19095;SDS011;9680;52.520;13.332;2022-12-17T09:34:35;52.70;;;14.77;;
19095;SDS011;9680;52.520;13.332;2022-12-17T09:37:19;57.07;;;15.17;;
19095;SDS011;9680;52.520;13.332;2022-12-17T09:40:03;62.07;;;15.97;;
19095;SDS011;9680;52.520;13.332;2022-12-17T09:42:53;61.23;;;16.13;;
19095;SDS011;9680;52.520;13.332;2022-12-17T09:46:02;53.83;;;14.60;;
19095;SDS011;9680;52.520;13.332;2022-12-17T09:49:07;54.53;;;14.63;;
19095;SDS011;9680;52.520;13.332;2022-12-17T09:52:00;56.40;;;17.03;;
19095;SDS011;9680;52.520;13.332;2022-12-17T09:54:57;56.83;;;15.27;;
19095;SDS011;9680;52.520;13.332;2022-12-17T09:57:42;66.13;;;19.43;;
19095;SDS011;9680;52.520;13.332;2022-12-17T10:00:27;71.27;;;21.73;;
19095;SDS011;9680;52.520;13.332;2022-12-17T10:06:05;55.77;;;15.33;;
19095;SDS011;9680;52.520;13.332;2022-12-17T10:09:08;57.53;;;16.33;;
19095;SDS011;9680;52.520;13.332;2022-12-17T10:12:19;60.60;;;15.93;;
19095;SDS011;9680;52.520;13.332;2022-12-17T10:15:03;60.00;;;17.17;;
19095;SDS011;9680;52.520;13.332;2022-12-17T10:18:05;53.10;;;14.53;;
19095;SDS011;9680;52.520;13.332;2022-12-17T10:21:00;61.23;;;16.40;;
19095;SDS011;9680;52.520;13.332;2022-12-17T10:23:48;57.50;;;15.77;;
19095;SDS011;9680;52.520;13.332;2022-12-17T10:26:33;61.13;;;16.33;;
19095;SDS011;9680;52.520;13.332;2022-12-17T10:29:20;64.17;;;15.83;;
19095;SDS011;9680;52.520;13.332;2022-12-17T10:34:59;64.73;;;17.47;;
19095;SDS011;9680;52.520;13.332;2022-12-17T10:37:49;63.33;;;17.47;;
19095;SDS011;9680;52.520;13.332;2022-12-17T10:40:34;63.33;;;17.87;;
19095;SDS011;9680;52.520;13.332;2022-12-17T10:46:08;63.17;;;18.00;;
19095;SDS011;9680;52.520;13.332;2022-12-17T10:49:10;63.10;;;16.70;;
19095;SDS011;9680;52.520;13.332;2022-12-17T10:55:44;61.87;;;16.70;;
19095;SDS011;9680;52.520;13.332;2022-12-17T10:58:20;64.47;;;17.93;;
19095;SDS011;9680;52.520;13.332;2022-12-17T11:01:11;60.10;;;17.80;;
19095;SDS011;9680;52.520;13.332;2022-12-17T11:04:16;59.20;;;16.37;;
19095;SDS011;9680;52.520;13.332;2022-12-17T11:07:13;55.83;;;15.47;;
19095;SDS011;9680;52.520;13.332;2022-12-17T11:10:02;62.43;;;17.13;;
19095;SDS011;9680;52.520;13.332;2022-12-17T11:12:56;51.20;;;14.87;;
19095;SDS011;9680;52.520;13.332;2022-12-17T11:15:48;65.77;;;17.10;;
19095;SDS011;9680;52.520;13.332;2022-12-17T11:20:19;56.07;;;17.70;;
19095;SDS011;9680;52.520;13.332;2022-12-17T11:23:47;63.93;;;16.80;;
19095;SDS011;9680;52.520;13.332;2022-12-17T11:26:35;62.60;;;17.17;;
19095;SDS011;9680;52.520;13.332;2022-12-17T11:29:24;63.93;;;17.93;;
19095;SDS011;9680;52.520;13.332;2022-12-17T11:32:20;56.33;;;17.37;;
19095;SDS011;9680;52.520;13.332;2022-12-17T11:35:27;66.03;;;17.80;;
19095;SDS011;9680;52.520;13.332;2022-12-17T11:38:21;57.43;;;15.07;;
19095;SDS011;9680;52.520;13.332;2022-12-17T11:41:17;69.27;;;18.17;;
19095;SDS011;9680;52.520;13.332;2022-12-17T11:44:08;55.70;;;17.07;;
19095;SDS011;9680;52.520;13.332;2022-12-17T11:47:02;63.10;;;17.73;;
19095;SDS011;9680;52.520;13.332;2022-12-17T11:49:59;62.30;;;15.07;;
19095;SDS011;9680;52.520;13.332;2022-12-17T11:52:56;52.20;;;15.47;;
19095;SDS011;9680;52.520;13.332;2022-12-17T11:55:50;54.50;;;14.47;;
19095;SDS011;9680;52.520;13.332;2022-12-17T11:58:47;53.07;;;13.90;;
19095;SDS011;9680;52.520;13.332;2022-12-17T12:01:35;50.93;;;15.27;;
19095;SDS011;9680;52.520;13.332;2022-12-17T12:04:34;50.67;;;13.90;;
19095;SDS011;9680;52.520;13.332;2022-12-17T12:07:34;59.43;;;15.07;;
19095;SDS011;9680;52.520;13.332;2022-12-17T12:10:27;54.73;;;15.30;;
19095;SDS011;9680;52.520;13.332;2022-12-17T12:13:19;53.30;;;15.17;;
19095;SDS011;9680;52.520;13.332;2022-12-17T12:16:13;62.83;;;14.93;;
19095;SDS011;9680;52.520;13.332;2022-12-17T12:19:06;62.60;;;15.60;;
19095;SDS011;9680;52.520;13.332;2022-12-17T12:22:01;59.47;;;15.57;;
19095;SDS011;9680;52.520;13.332;2022-12-17T12:25:03;56.03;;;14.50;;
19095;SDS011;9680;52.520;13.332;2022-12-17T12:28:01;49.90;;;14.50;;
19095;SDS011;9680;52.520;13.332;2022-12-17T12:30:59;52.70;;;14.30;;
19095;SDS011;9680;52.520;13.332;2022-12-17T12:33:54;51.07;;;14.73;;
19095;SDS011;9680;52.520;13.332;2022-12-17T12:36:41;55.03;;;15.13;;
19095;SDS011;9680;52.520;13.332;2022-12-17T12:39:30;52.83;;;15.27;;
19095;SDS011;9680;52.520;13.332;2022-12-17T12:42:20;53.60;;;14.30;;
19095;SDS011;9680;52.520;13.332;2022-12-17T12:45:15;58.17;;;14.57;;
19095;SDS011;9680;52.520;13.332;2022-12-17T12:48:13;54.67;;;15.17;;
19095;SDS011;9680;52.520;13.332;2022-12-17T12:51:08;49.50;;;13.77;;
19095;SDS011;9680;52.520;13.332;2022-12-17T12:54:24;46.73;;;13.50;;
19095;SDS011;9680;52.520;13.332;2022-12-17T12:57:27;54.17;;;13.50;;
19095;SDS011;9680;52.520;13.332;2022-12-17T13:00:20;50.80;;;15.20;;
19095;SDS011;9680;52.520;13.332;2022-12-17T13:03:07;50.10;;;13.73;;
19095;SDS011;9680;52.520;13.332;2022-12-17T13:05:51;44.77;;;14.00;;
19095;SDS011;9680;52.520;13.332;2022-12-17T13:08:21;55.30;;;14.27;;
19095;SDS011;9680;52.520;13.332;2022-12-17T13:10:50;56.23;;;14.90;;
19095;SDS011;9680;52.520;13.332;2022-12-17T13:13:28;50.03;;;13.40;;
19095;SDS011;9680;52.520;13.332;2022-12-17T13:16:00;52.07;;;13.87;;
19095;SDS011;9680;52.520;13.332;2022-12-17T13:18:31;50.87;;;13.57;;
19095;SDS011;9680;52.520;13.332;2022-12-17T13:21:00;56.10;;;14.57;;
19095;SDS011;9680;52.520;13.332;2022-12-17T13:23:30;50.40;;;13.10;;
19095;SDS011;9680;52.520;13.332;2022-12-17T13:26:12;52.53;;;14.07;;
19095;SDS011;9680;52.520;13.332;2022-12-17T13:31:43;52.23;;;13.67;;
19095;SDS011;9680;52.520;13.332;2022-12-17T13:34:22;54.60;;;14.60;;
19095;SDS011;9680;52.520;13.332;2022-12-17T13:36:54;54.87;;;15.33;;
19095;SDS011;9680;52.520;13.332;2022-12-17T13:39:30;57.20;;;13.73;;
19095;SDS011;9680;52.520;13.332;2022-12-17T13:42:03;55.53;;;14.90;;
19095;SDS011;9680;52.520;13.332;2022-12-17T13:44:31;47.40;;;13.03;;
19095;SDS011;9680;52.520;13.332;2022-12-17T13:47:16;50.90;;;14.33;;
19095;SDS011;9680;52.520;13.332;2022-12-17T13:49:48;50.40;;;14.23;;
19095;SDS011;9680;52.520;13.332;2022-12-17T13:52:22;63.13;;;16.10;;
19095;SDS011;9680;52.520;13.332;2022-12-17T13:54:51;57.87;;;16.17;;
19095;SDS011;9680;52.520;13.332;2022-12-17T13:57:19;57.83;;;14.70;;
19095;SDS011;9680;52.520;13.332;2022-12-17T13:59:48;58.10;;;14.60;;
19095;SDS011;9680;52.520;13.332;2022-12-17T14:02:22;58.03;;;14.50;;
19095;SDS011;9680;52.520;13.332;2022-12-17T14:04:50;59.03;;;15.07;;
19095;SDS011;9680;52.520;13.332;2022-12-17T14:07:18;56.07;;;14.33;;
19095;SDS011;9680;52.520;13.332;2022-12-17T14:09:45;51.03;;;13.97;;
19095;SDS011;9680;52.520;13.332;2022-12-17T14:12:15;59.27;;;15.23;;
19095;SDS011;9680;52.520;13.332;2022-12-17T14:14:50;61.90;;;14.87;;
19095;SDS011;9680;52.520;13.332;2022-12-17T14:17:20;54.30;;;15.60;;
19095;SDS011;9680;52.520;13.332;2022-12-17T14:19:51;55.40;;;14.70;;
19095;SDS011;9680;52.520;13.332;2022-12-17T14:22:24;48.03;;;13.30;;
19095;SDS011;9680;52.520;13.332;2022-12-17T14:24:57;51.93;;;13.13;;
19095;SDS011;9680;52.520;13.332;2022-12-17T14:27:26;55.43;;;13.70;;
19095;SDS011;9680;52.520;13.332;2022-12-17T14:29:58;52.63;;;13.33;;
19095;SDS011;9680;52.520;13.332;2022-12-17T14:32:29;53.73;;;13.57;;
19095;SDS011;9680;52.520;13.332;2022-12-17T14:34:59;57.60;;;13.23;;
19095;SDS011;9680;52.520;13.332;2022-12-17T14:37:26;52.50;;;14.90;;
19095;SDS011;9680;52.520;13.332;2022-12-17T14:39:54;62.20;;;14.70;;
19095;SDS011;9680;52.520;13.332;2022-12-17T14:42:28;59.37;;;13.93;;
19095;SDS011;9680;52.520;13.332;2022-12-17T14:44:57;54.27;;;13.60;;
19095;SDS011;9680;52.520;13.332;2022-12-17T14:47:26;54.43;;;14.83;;
19095;SDS011;9680;52.520;13.332;2022-12-17T14:49:56;60.57;;;15.23;;
19095;SDS011;9680;52.520;13.332;2022-12-17T14:52:33;53.87;;;15.00;;
19095;SDS011;9680;52.520;13.332;2022-12-17T14:57:49;55.00;;;13.03;;
19095;SDS011;9680;52.520;13.332;2022-12-17T15:00:17;55.40;;;14.13;;
19095;SDS011;9680;52.520;13.332;2022-12-17T15:02:45;54.10;;;13.17;;
19095;SDS011;9680;52.520;13.332;2022-12-17T15:05:17;55.70;;;14.20;;
19095;SDS011;9680;52.520;13.332;2022-12-17T15:07:44;60.60;;;15.37;;
19095;SDS011;9680;52.520;13.332;2022-12-17T15:10:12;51.40;;;12.67;;
19095;SDS011;9680;52.520;13.332;2022-12-17T15:12:41;56.47;;;13.87;;
19095;SDS011;9680;52.520;13.332;2022-12-17T15:15:12;57.43;;;13.13;;
19095;SDS011;9680;52.520;13.332;2022-12-17T15:17:39;46.57;;;12.40;;
19095;SDS011;9680;52.520;13.332;2022-12-17T15:20:07;46.17;;;13.50;;
19095;SDS011;9680;52.520;13.332;2022-12-17T15:22:41;47.97;;;13.00;;
19095;SDS011;9680;52.520;13.332;2022-12-17T15:25:09;54.60;;;14.13;;
19095;SDS011;9680;52.520;13.332;2022-12-17T15:27:37;49.60;;;12.37;;
19095;SDS011;9680;52.520;13.332;2022-12-17T15:30:04;46.03;;;12.83;;
19095;SDS011;9680;52.520;13.332;2022-12-17T15:32:33;47.70;;;12.40;;
19095;SDS011;9680;52.520;13.332;2022-12-17T15:35:00;54.40;;;13.73;;
19095;SDS011;9680;52.520;13.332;2022-12-17T15:37:27;47.70;;;13.43;;
19095;SDS011;9680;52.520;13.332;2022-12-17T15:39:54;52.97;;;13.03;;
19095;SDS011;9680;52.520;13.332;2022-12-17T15:42:22;48.90;;;13.13;;
19095;SDS011;9680;52.520;13.332;2022-12-17T15:45:07;51.63;;;12.80;;
19095;SDS011;9680;52.520;13.332;2022-12-17T15:47:36;50.03;;;12.37;;
19095;SDS011;9680;52.520;13.332;2022-12-17T15:50:03;52.90;;;12.60;;
19095;SDS011;9680;52.520;13.332;2022-12-17T15:52:30;48.97;;;12.40;;
19095;SDS011;9680;52.520;13.332;2022-12-17T15:54:59;51.37;;;12.77;;
19095;SDS011;9680;52.520;13.332;2022-12-17T15:57:26;54.07;;;12.93;;
19095;SDS011;9680;52.520;13.332;2022-12-17T15:59:53;42.17;;;12.00;;
19095;SDS011;9680;52.520;13.332;2022-12-17T16:02:20;46.83;;;12.67;;
19095;SDS011;9680;52.520;13.332;2022-12-17T16:04:48;44.10;;;12.63;;
19095;SDS011;9680;52.520;13.332;2022-12-17T16:07:15;56.10;;;13.70;;
19095;SDS011;9680;52.520;13.332;2022-12-17T16:09:42;49.70;;;11.87;;
19095;SDS011;9680;52.520;13.332;2022-12-17T16:12:08;46.30;;;12.97;;
19095;SDS011;9680;52.520;13.332;2022-12-17T16:14:36;52.87;;;13.13;;
19095;SDS011;9680;52.520;13.332;2022-12-17T16:17:03;52.27;;;12.47;;
19095;SDS011;9680;52.520;13.332;2022-12-17T16:19:30;50.23;;;12.30;;
19095;SDS011;9680;52.520;13.332;2022-12-17T16:21:58;54.50;;;13.43;;
19095;SDS011;9680;52.520;13.332;2022-12-17T16:24:25;52.43;;;13.10;;
19095;SDS011;9680;52.520;13.332;2022-12-17T16:26:52;54.93;;;14.53;;